createdAt,value
2023-03-17T00:02:48.452Z,28.40
2023-03-17T00:06:40.946Z,30.01
2023-03-17T00:10:40.916Z,30.10
2023-03-17T00:14:40.867Z,29.53
2023-03-17T00:18:40.868Z,28.83
2023-03-17T00:22:40.797Z,30.24
2023-03-17T00:26:40.769Z,27.81
2023-03-17T00:30:47.952Z,29.06
2023-03-17T00:34:40.708Z,29.75
2023-03-17T00:38:40.694Z,31.77
2023-03-17T00:42:40.638Z,28.03
2023-03-17T00:46:40.644Z,28.82
2023-03-17T00:50:40.523Z,26.89
2023-03-17T00:54:40.526Z,28.33
2023-03-17T00:58:40.520Z,27.55
2023-03-17T01:02:40.440Z,27.18
2023-03-17T01:06:40.399Z,28.43
2023-03-17T01:10:47.967Z,25.71
2023-03-17T01:14:40.631Z,27.25
2023-03-17T01:18:40.664Z,27.26
2023-03-17T01:22:47.480Z,26.87
2023-03-17T01:26:40.307Z,28.62
2023-03-17T01:30:40.295Z,30.21
2023-03-17T01:34:40.271Z,28.89
2023-03-17T01:38:40.269Z,28.48
2023-03-17T01:42:40.174Z,31.43
2023-03-17T01:46:40.488Z,26.66
2023-03-17T01:50:40.138Z,26.56
2023-03-17T01:54:40.206Z,28.23
2023-03-17T01:58:40.329Z,30.31
2023-03-17T02:02:40.459Z,27.85
2023-03-17T02:06:55.109Z,30.17
2023-03-17T02:10:41.561Z,27.37
2023-03-17T02:14:40.532Z,32.60
2023-03-17T02:18:40.506Z,31.14
2023-03-17T02:22:40.505Z,30.91
2023-03-17T02:26:40.704Z,30.77
2023-03-17T02:30:40.848Z,28.83
2023-03-17T02:34:40.991Z,28.50
2023-03-17T02:38:41.219Z,28.86
2023-03-17T02:42:41.317Z,26.64
2023-03-17T02:46:41.479Z,32.51
2023-03-17T02:50:41.651Z,33.29
2023-03-17T02:54:41.783Z,28.17
2023-03-17T02:58:41.896Z,31.68
2023-03-17T03:02:42.192Z,28.29
2023-03-17T03:06:42.246Z,31.11
2023-03-17T03:10:42.400Z,30.36
2023-03-17T03:14:42.553Z,28.62
2023-03-17T03:18:42.718Z,29.30
2023-03-17T03:22:42.866Z,27.77
2023-03-17T03:26:42.996Z,29.20
2023-03-17T03:30:43.159Z,28.42
2023-03-17T03:34:43.323Z,27.30
2023-03-17T03:38:43.477Z,32.56
2023-03-17T03:42:43.605Z,30.07
2023-03-17T03:46:43.755Z,32.24
2023-03-17T03:50:43.919Z,31.78
2023-03-17T03:54:44.045Z,28.31
2023-03-17T03:58:44.208Z,27.35
2023-03-17T04:02:44.340Z,30.91
2023-03-17T04:06:44.548Z,28.83
2023-03-17T04:10:44.611Z,31.59
2023-03-17T04:14:44.747Z,30.01
2023-03-17T04:18:45.003Z,30.21
2023-03-17T04:22:45.094Z,28.46
2023-03-17T04:26:45.155Z,27.49
2023-03-17T04:30:45.291Z,30.63
2023-03-17T04:34:45.426Z,29.54
2023-03-17T04:38:45.585Z,29.02
2023-03-17T04:42:45.699Z,27.87
2023-03-17T04:46:45.840Z,31.32
2023-03-17T04:50:45.986Z,32.21
2023-03-17T04:54:46.165Z,33.42
2023-03-17T04:58:46.306Z,35.48
2023-03-17T05:02:46.461Z,35.97
2023-03-17T05:06:46.610Z,29.79
2023-03-17T05:10:46.780Z,30.35
2023-03-17T05:14:46.904Z,30.33
2023-03-17T05:18:47.053Z,28.11
2023-03-17T05:22:47.222Z,31.23
2023-03-17T05:26:47.329Z,32.19
2023-03-17T05:30:47.467Z,28.53
2023-03-17T05:34:47.590Z,30.64
2023-03-17T05:38:47.736Z,33.60
2023-03-17T05:42:47.877Z,29.28
2023-03-17T05:46:48.012Z,25.69
2023-03-17T05:50:48.189Z,26.94
2023-03-17T05:54:48.301Z,29.04
2023-03-17T05:58:48.440Z,29.95
2023-03-17T06:02:48.596Z,32.21
2023-03-17T06:06:48.756Z,31.04
2023-03-17T06:10:48.900Z,27.43
2023-03-17T06:14:49.018Z,23.77
2023-03-17T06:18:49.118Z,27.46
2023-03-17T06:23:03.473Z,32.40
2023-03-17T06:26:50.092Z,20.52
2023-03-17T06:30:49.128Z,28.04
2023-03-17T06:34:49.043Z,25.42
2023-03-17T06:38:49.024Z,28.58
2023-03-17T06:42:49.143Z,36.75
2023-03-17T06:46:49.261Z,78.39
2023-03-17T06:50:49.317Z,90.75
2023-03-17T06:54:49.430Z,105.81
2023-03-17T06:58:49.579Z,52.57
2023-03-17T07:02:49.723Z,42.06
2023-03-17T07:06:49.840Z,47.35
2023-03-17T07:10:50.005Z,64.65
2023-03-17T07:14:50.025Z,78.67
2023-03-17T07:18:50.062Z,85.12
2023-03-17T07:22:50.026Z,90.10
2023-03-17T07:26:49.983Z,93.12
2023-03-17T07:30:50.007Z,96.95
2023-03-17T07:34:50.205Z,98.03
2023-03-17T07:38:50.394Z,101.28
2023-03-17T07:42:50.597Z,99.05
2023-03-17T07:46:50.795Z,100.62
2023-03-17T07:50:51.036Z,101.10
2023-03-17T07:54:51.214Z,57.25
2023-03-17T07:58:51.212Z,84.03
2023-03-17T08:03:06.854Z,94.40
2023-03-17T08:06:52.333Z,110.04
2023-03-17T08:10:51.336Z,138.06
2023-03-17T08:14:51.241Z,156.07
2023-03-17T08:18:51.285Z,165.60
2023-03-17T08:22:51.304Z,183.87
2023-03-17T08:26:51.515Z,175.39
2023-03-17T08:30:51.741Z,187.27
2023-03-17T08:34:51.843Z,194.14
2023-03-17T08:38:52.019Z,206.86
2023-03-17T08:42:52.138Z,210.29
2023-03-17T08:46:52.198Z,213.84
2023-03-17T08:50:52.355Z,197.73
2023-03-17T08:54:52.491Z,161.69
2023-03-17T08:58:52.637Z,165.79
2023-03-17T09:02:52.835Z,156.38
2023-03-17T09:07:02.763Z,170.43
2023-03-17T09:10:53.812Z,174.79
2023-03-17T09:14:52.774Z,175.17
2023-03-17T09:18:52.760Z,182.10
2023-03-17T09:22:52.949Z,188.44
2023-03-17T09:26:53.197Z,188.83
2023-03-17T09:30:53.380Z,183.20
2023-03-17T09:34:53.557Z,167.51
2023-03-17T09:38:53.682Z,169.80
2023-03-17T09:42:53.851Z,142.38
2023-03-17T09:46:54.027Z,211.18
2023-03-17T09:50:54.147Z,250.13
2023-03-17T09:54:54.309Z,233.79
2023-03-17T09:58:54.516Z,217.04
2023-03-17T10:02:55.192Z,223.59
2023-03-17T10:06:54.913Z,213.17
2023-03-17T10:10:55.114Z,162.05
2023-03-17T10:14:55.168Z,145.78
2023-03-17T10:18:55.279Z,124.46
2023-03-17T10:22:55.430Z,116.33
2023-03-17T10:26:55.597Z,97.14
2023-03-17T10:30:55.796Z,95.37
2023-03-17T10:34:56.018Z,92.10
2023-03-17T10:38:56.224Z,86.73
2023-03-17T10:42:56.455Z,85.54
2023-03-17T10:46:56.764Z,99.56
2023-03-17T10:50:56.860Z,112.75
2023-03-17T10:54:57.017Z,120.32
2023-03-17T10:58:57.187Z,121.13
2023-03-17T11:02:57.223Z,120.61
2023-03-17T11:06:57.349Z,115.42
2023-03-17T11:10:57.365Z,112.54
2023-03-17T11:14:57.438Z,116.02
2023-03-17T11:18:57.492Z,112.92
2023-03-17T11:22:57.558Z,113.23
2023-03-17T11:26:57.653Z,113.69
2023-03-17T11:30:57.723Z,110.48
2023-03-17T11:34:57.819Z,112.03
2023-03-17T11:38:57.872Z,109.08
2023-03-17T11:42:57.965Z,107.29
2023-03-17T11:46:58.108Z,107.76
2023-03-17T11:50:58.210Z,105.50
2023-03-17T11:54:59.657Z,105.29
2023-03-17T11:58:58.352Z,115.32
2023-03-17T12:02:58.418Z,121.27
2023-03-17T12:06:58.494Z,127.96
2023-03-17T12:10:58.516Z,125.32
2023-03-17T12:14:58.655Z,127.46
2023-03-17T12:18:58.624Z,124.43
2023-03-17T12:22:58.698Z,127.10
2023-03-17T12:27:06.279Z,129.67
2023-03-17T12:30:58.769Z,129.52
2023-03-17T12:34:58.693Z,126.40
2023-03-17T12:38:58.671Z,129.02
2023-03-17T12:42:58.631Z,127.46
2023-03-17T12:46:58.624Z,125.16
2023-03-17T12:50:58.570Z,120.89
2023-03-17T12:54:58.537Z,95.06
2023-03-17T12:58:58.665Z,140.10
2023-03-17T13:02:58.824Z,133.17
2023-03-17T13:06:58.929Z,140.64
2023-03-17T13:10:59.063Z,142.33
2023-03-17T13:15:06.263Z,144.40
2023-03-17T13:18:59.096Z,143.69
2023-03-17T13:22:59.070Z,130.45
2023-03-17T13:26:59.023Z,131.32
2023-03-17T13:30:59.050Z,131.65
2023-03-17T13:34:59.018Z,130.41
2023-03-17T13:39:17.714Z,128.80
2023-03-17T13:42:59.921Z,125.64
2023-03-17T13:46:58.974Z,124.05
2023-03-17T13:50:58.873Z,125.65
2023-03-17T13:55:06.303Z,123.02
2023-03-17T13:58:58.794Z,123.96
2023-03-17T14:03:06.322Z,121.41
2023-03-17T14:06:58.701Z,119.38
2023-03-17T14:10:58.648Z,122.37
2023-03-17T14:14:58.641Z,118.47
2023-03-17T14:18:58.607Z,119.04
2023-03-17T14:22:58.538Z,118.23
2023-03-17T14:26:58.666Z,116.75
2023-03-17T14:30:58.797Z,118.04
2023-03-17T14:34:58.887Z,117.78
2023-03-17T14:38:59.027Z,115.82
2023-03-17T14:42:59.143Z,115.44
2023-03-17T14:46:59.265Z,111.59
2023-03-17T14:50:59.845Z,114.69
2023-03-17T14:54:59.489Z,112.28
2023-03-17T14:58:59.670Z,108.43
2023-03-17T15:02:59.766Z,108.35
2023-03-17T15:06:59.933Z,107.33
2023-03-17T15:11:00.052Z,109.25
2023-03-17T15:15:00.173Z,108.30
2023-03-17T15:19:00.342Z,104.66
2023-03-17T15:23:00.456Z,104.86
2023-03-17T15:27:00.609Z,104.94
2023-03-17T15:31:00.822Z,102.18
2023-03-17T15:35:00.898Z,103.00
2023-03-17T15:39:01.030Z,100.14
2023-03-17T15:43:01.176Z,99.99
2023-03-17T15:47:01.351Z,99.76
2023-03-17T15:51:01.498Z,98.08
2023-03-17T15:55:01.595Z,96.17
2023-03-17T15:59:01.742Z,96.39
2023-03-17T16:03:01.857Z,96.33
2023-03-17T16:07:02.024Z,92.72
2023-03-17T16:11:02.160Z,93.25
2023-03-17T16:15:10.350Z,92.52
2023-03-17T16:19:03.244Z,94.43
2023-03-17T16:23:02.202Z,91.44
2023-03-17T16:27:02.191Z,90.04
2023-03-17T16:31:02.286Z,87.34
2023-03-17T16:35:02.405Z,92.07
2023-03-17T16:39:02.573Z,91.37
2023-03-17T16:43:03.947Z,88.57
2023-03-17T16:47:02.737Z,88.68
2023-03-17T16:51:02.632Z,87.60
2023-03-17T16:55:02.614Z,87.69
2023-03-17T16:59:02.550Z,88.17
2023-03-17T17:03:02.577Z,84.13
2023-03-17T17:07:02.468Z,85.08
2023-03-17T17:11:02.480Z,84.35
2023-03-17T17:15:02.406Z,86.61
2023-03-17T17:19:02.355Z,79.87
2023-03-17T17:23:02.520Z,81.40
2023-03-17T17:27:02.620Z,80.23
2023-03-17T17:31:02.889Z,77.42
2023-03-17T17:35:02.973Z,76.06
2023-03-17T17:39:03.151Z,74.86
2023-03-17T17:43:03.268Z,75.52
2023-03-17T17:47:03.491Z,73.46
2023-03-17T17:51:03.585Z,73.61
2023-03-17T17:55:03.804Z,71.31
2023-03-17T17:59:04.005Z,70.23
2023-03-17T18:03:11.391Z,72.15
2023-03-17T18:07:04.130Z,71.98
2023-03-17T18:11:04.056Z,68.20
2023-03-17T18:15:04.041Z,67.31
2023-03-17T18:19:04.037Z,65.71
2023-03-17T18:23:03.957Z,62.98
2023-03-17T18:27:03.961Z,62.30
2023-03-17T18:31:03.993Z,67.00
2023-03-17T18:35:04.137Z,62.27
2023-03-17T18:39:04.282Z,62.97
2023-03-17T18:43:04.445Z,57.84
2023-03-17T18:47:04.639Z,56.43
2023-03-17T18:51:04.800Z,59.47
2023-03-17T18:55:04.945Z,60.66
2023-03-17T18:59:05.166Z,59.85
2023-03-17T19:03:05.405Z,56.77
2023-03-17T19:07:05.546Z,55.75
2023-03-17T19:11:05.649Z,56.88
2023-03-17T19:15:05.826Z,57.11
2023-03-17T19:19:05.987Z,54.56
2023-03-17T19:23:06.113Z,54.29
2023-03-17T19:27:06.296Z,53.14
2023-03-17T19:31:06.511Z,55.71
2023-03-17T19:35:06.600Z,55.99
2023-03-17T19:39:06.769Z,49.97
2023-03-17T19:43:06.921Z,54.17
2023-03-17T19:47:07.117Z,47.53
2023-03-17T19:51:07.293Z,52.13
2023-03-17T19:55:08.352Z,50.00
2023-03-17T19:59:07.609Z,50.10
2023-03-17T20:03:07.719Z,48.89
2023-03-17T20:07:07.967Z,45.38
2023-03-17T20:11:08.080Z,48.34
2023-03-17T20:15:08.222Z,44.78
2023-03-17T20:19:08.343Z,42.83
2023-03-17T20:23:08.507Z,46.10
2023-03-17T20:27:08.668Z,43.90
2023-03-17T20:31:08.892Z,39.76
2023-03-17T20:35:09.027Z,43.37
2023-03-17T20:39:09.157Z,40.73
2023-03-17T20:43:09.316Z,38.54
2023-03-17T20:47:09.371Z,35.93
2023-03-17T20:51:09.425Z,37.40
2023-03-17T20:55:09.529Z,36.57
2023-03-17T20:59:09.605Z,37.41
2023-03-17T21:03:10.024Z,34.39
2023-03-17T21:07:09.845Z,36.64
2023-03-17T21:11:10.043Z,33.94
2023-03-17T21:15:10.231Z,31.74
2023-03-17T21:19:10.416Z,29.07
2023-03-17T21:23:10.590Z,29.42
2023-03-17T21:27:10.779Z,27.78
2023-03-17T21:31:10.977Z,28.37
2023-03-17T21:35:11.125Z,30.54
2023-03-17T21:39:11.314Z,29.30
2023-03-17T21:43:11.964Z,30.46
2023-03-17T21:47:11.744Z,30.08
2023-03-17T21:51:11.955Z,28.17
2023-03-17T21:55:12.130Z,28.69
2023-03-17T21:59:12.359Z,25.16
2023-03-17T22:03:12.598Z,25.32
2023-03-17T22:07:12.794Z,27.65
2023-03-17T22:11:13.033Z,29.36
2023-03-17T22:15:13.156Z,29.32
2023-03-17T22:19:13.389Z,27.71
2023-03-17T22:23:13.621Z,26.75
2023-03-17T22:27:13.788Z,28.11
2023-03-17T22:31:14.093Z,28.25
2023-03-17T22:35:14.189Z,28.88
2023-03-17T22:39:14.451Z,28.67
2023-03-17T22:43:14.615Z,33.41
2023-03-17T22:47:14.815Z,30.02
2023-03-17T22:51:14.823Z,28.73
2023-03-17T22:55:14.781Z,30.66
2023-03-17T22:59:14.754Z,28.25
2023-03-17T23:03:14.745Z,26.53
2023-03-17T23:07:14.663Z,27.72
2023-03-17T23:11:14.622Z,28.88
2023-03-17T23:15:14.616Z,28.72
2023-03-17T23:19:14.525Z,25.57
2023-03-17T23:23:14.505Z,26.55
2023-03-17T23:27:14.467Z,27.03
2023-03-17T23:31:14.557Z,29.76
2023-03-17T23:35:14.763Z,26.31
2023-03-17T23:39:14.698Z,28.77
2023-03-17T23:43:14.702Z,30.62
2023-03-17T23:47:14.607Z,29.83
2023-03-17T23:51:14.589Z,32.90
2023-03-17T23:55:14.577Z,29.63
2023-03-17T23:59:14.483Z,28.69
